createdAt,value
2023-03-14T00:00:28.069Z,84.02
2023-03-14T00:01:29.544Z,84.06
2023-03-14T00:02:31.024Z,84.05
2023-03-14T00:03:33.358Z,84.69
2023-03-14T00:04:35.423Z,84.69
2023-03-14T00:05:36.839Z,84.33
2023-03-14T00:06:38.330Z,84.10
2023-03-14T00:07:40.673Z,84.82
2023-03-14T00:08:43.090Z,84.11
2023-03-14T00:09:44.601Z,84.38
2023-03-14T00:10:46.062Z,84.56
2023-03-14T00:11:47.496Z,84.97
2023-03-14T00:12:48.943Z,84.93
2023-03-14T00:13:51.668Z,84.51
2023-03-14T00:14:53.125Z,85.24
2023-03-14T00:15:54.936Z,84.66
2023-03-14T00:16:56.358Z,84.26
2023-03-14T00:17:57.802Z,84.62
2023-03-14T00:19:00.468Z,85.24
2023-03-14T00:20:09.180Z,85.09
2023-03-14T00:21:12.138Z,85.44
2023-03-14T00:22:13.590Z,85.62
2023-03-14T00:23:15.003Z,85.57
2023-03-14T00:24:16.526Z,85.77
2023-03-14T00:25:18.093Z,86.27
2023-03-14T00:26:21.727Z,86.85
2023-03-14T00:27:23.204Z,86.89
2023-03-14T00:28:24.686Z,86.13
2023-03-14T00:29:26.121Z,86.47
2023-03-14T00:30:27.557Z,86.99
2023-03-14T00:31:29.025Z,86.59
2023-03-14T00:32:30.497Z,86.70
2023-03-14T00:33:31.983Z,87.07
2023-03-14T00:34:34.476Z,87.37
2023-03-14T00:35:35.928Z,87.38
2023-03-14T00:36:37.379Z,87.35
2023-03-14T00:37:39.187Z,87.25
2023-03-14T00:38:42.334Z,87.90
2023-03-14T00:39:43.810Z,88.15
2023-03-14T00:40:45.205Z,87.89
2023-03-14T00:41:46.618Z,87.86
2023-03-14T00:42:48.024Z,88.25
2023-03-14T00:43:49.852Z,88.29
2023-03-14T00:44:51.234Z,88.91
2023-03-14T00:45:53.677Z,88.34
2023-03-14T00:46:55.236Z,88.95
2023-03-14T00:47:56.726Z,88.29
2023-03-14T00:48:58.166Z,88.29
2023-03-14T00:49:59.599Z,88.52
2023-03-14T00:51:01.270Z,88.62
2023-03-14T00:52:02.731Z,87.90
2023-03-14T00:53:04.125Z,87.95
2023-03-14T00:54:05.622Z,87.77
2023-03-14T00:55:07.295Z,88.60
2023-03-14T00:56:11.685Z,88.48
2023-03-14T00:57:13.177Z,88.44
2023-03-14T00:58:17.305Z,88.76
2023-03-14T00:59:18.757Z,89.00
2023-03-14T01:00:20.298Z,89.50
2023-03-14T01:01:21.750Z,89.54
2023-03-14T01:02:23.242Z,89.67
2023-03-14T01:03:25.132Z,89.73
2023-03-14T01:04:26.756Z,89.97
2023-03-14T01:05:28.972Z,89.70
2023-03-14T01:06:30.712Z,89.54
2023-03-14T01:07:32.104Z,89.27
2023-03-14T01:08:33.536Z,89.32
2023-03-14T01:09:34.984Z,88.78
2023-03-14T01:10:39.896Z,89.31
2023-03-14T01:11:41.365Z,89.77
2023-03-14T01:12:42.899Z,89.54
2023-03-14T01:13:44.506Z,89.18
2023-03-14T01:14:45.918Z,89.08
2023-03-14T01:15:47.362Z,89.53
2023-03-14T01:16:48.822Z,89.62
2023-03-14T01:17:50.331Z,89.20
2023-03-14T01:18:52.080Z,89.15
2023-03-14T01:19:53.504Z,89.57
2023-03-14T01:20:54.952Z,90.04
2023-03-14T01:21:56.478Z,89.42
2023-03-14T01:22:57.937Z,89.03
2023-03-14T01:24:02.971Z,88.94
2023-03-14T01:25:04.840Z,88.52
2023-03-14T01:26:09.752Z,89.36
2023-03-14T01:27:11.218Z,89.45
2023-03-14T01:28:12.614Z,88.93
2023-03-14T01:29:14.077Z,88.79
2023-03-14T01:30:15.759Z,88.42
2023-03-14T01:31:17.272Z,89.08
2023-03-14T01:32:18.740Z,89.08
2023-03-14T01:33:20.241Z,88.70
2023-03-14T01:34:21.739Z,88.56
2023-03-14T01:35:23.169Z,88.14
2023-03-14T01:36:24.657Z,87.81
2023-03-14T01:37:26.079Z,87.83
2023-03-14T01:38:27.498Z,87.79
2023-03-14T01:39:29.356Z,87.66
2023-03-14T01:40:30.852Z,86.91
2023-03-14T01:41:33.121Z,87.28
2023-03-14T01:42:34.731Z,87.70
2023-03-14T01:43:36.159Z,87.59
2023-03-14T01:44:56.065Z,87.50
2023-03-14T01:45:57.461Z,86.54
2023-03-14T01:46:58.964Z,87.15
2023-03-14T01:48:00.371Z,87.17
2023-03-14T01:49:31.779Z,87.25
2023-03-14T01:50:33.242Z,87.43
2023-03-14T01:51:41.418Z,88.03
2023-03-14T01:52:50.868Z,88.01
2023-03-14T01:53:56.062Z,88.78
2023-03-14T01:55:05.014Z,88.77
2023-03-14T01:56:08.919Z,88.27
2023-03-14T01:57:48.911Z,88.49
2023-03-14T01:58:53.005Z,89.06
2023-03-14T01:59:57.316Z,88.39
2023-03-14T02:01:00.064Z,87.57
2023-03-14T02:02:02.221Z,88.19
2023-03-14T02:03:10.121Z,87.99
2023-03-14T02:04:11.893Z,88.52
2023-03-14T02:05:16.856Z,88.71
2023-03-14T02:06:22.224Z,88.03
2023-03-14T02:07:31.611Z,88.91
2023-03-14T02:08:34.411Z,88.96
2023-03-14T02:09:36.856Z,89.18
2023-03-14T02:10:42.005Z,88.97
2023-03-14T02:11:45.067Z,88.92
2023-03-14T02:12:48.799Z,88.00
2023-03-14T02:13:50.696Z,88.96
2023-03-14T02:14:52.219Z,89.06
2023-03-14T02:15:53.791Z,88.74
2023-03-14T02:16:55.222Z,88.71
2023-03-14T02:17:58.300Z,89.07
2023-03-14T02:18:59.913Z,89.04
2023-03-14T02:20:20.144Z,88.58
2023-03-14T02:21:38.347Z,88.72
2023-03-14T02:22:42.998Z,89.00
2023-03-14T02:24:17.171Z,88.76
2023-03-14T02:25:36.446Z,88.45
2023-03-14T02:26:44.454Z,88.55
2023-03-14T02:27:46.104Z,88.81
2023-03-14T02:28:47.597Z,88.51
2023-03-14T02:29:58.155Z,88.22
2023-03-14T02:30:59.965Z,87.60
2023-03-14T02:32:01.753Z,87.68
2023-03-14T02:33:12.379Z,87.35
2023-03-14T02:34:14.216Z,87.45
2023-03-14T02:35:21.903Z,87.11
2023-03-14T02:36:24.827Z,87.08
2023-03-14T02:37:33.897Z,87.13
2023-03-14T02:38:42.011Z,86.91
2023-03-14T02:39:46.202Z,87.35
2023-03-14T02:40:48.017Z,87.49
2023-03-14T02:41:50.281Z,87.08
2023-03-14T02:42:51.733Z,86.95
2023-03-14T02:43:53.407Z,87.45
2023-03-14T02:45:02.152Z,87.76
2023-03-14T02:46:06.185Z,86.69
2023-03-14T02:47:07.583Z,87.18
2023-03-14T02:48:15.123Z,87.44
2023-03-14T02:49:17.514Z,87.09
2023-03-14T02:50:23.012Z,87.12
2023-03-14T02:51:26.902Z,88.00
2023-03-14T02:52:28.352Z,87.32
2023-03-14T02:53:33.309Z,88.05
2023-03-14T02:54:34.838Z,87.38
2023-03-14T02:55:36.301Z,87.59
2023-03-14T02:56:38.242Z,87.85
2023-03-14T02:57:39.557Z,87.58
2023-03-14T02:58:40.954Z,88.19
2023-03-14T02:59:42.366Z,87.44
2023-03-14T03:00:44.171Z,87.67
2023-03-14T03:01:45.591Z,87.42
2023-03-14T03:02:47.179Z,87.72
2023-03-14T03:03:48.665Z,88.23
2023-03-14T03:04:50.062Z,87.76
2023-03-14T03:05:52.710Z,87.61
2023-03-14T03:06:54.145Z,87.69
2023-03-14T03:07:55.796Z,87.74
2023-03-14T03:08:57.318Z,86.97
2023-03-14T03:09:59.040Z,87.68
2023-03-14T03:11:01.063Z,87.54
2023-03-14T03:12:02.560Z,88.03
2023-03-14T03:13:03.993Z,88.21
2023-03-14T03:14:05.404Z,87.92
2023-03-14T03:15:07.480Z,88.58
2023-03-14T03:16:09.480Z,88.35
2023-03-14T03:17:10.854Z,87.76
2023-03-14T03:18:12.455Z,88.53
2023-03-14T03:19:14.642Z,88.56
2023-03-14T03:20:16.474Z,88.68
2023-03-14T03:21:18.699Z,88.64
2023-03-14T03:22:20.204Z,89.21
2023-03-14T03:23:21.706Z,88.86
2023-03-14T03:24:23.124Z,89.00
2023-03-14T03:25:24.525Z,88.52
2023-03-14T03:26:25.930Z,89.16
2023-03-14T03:27:27.373Z,89.96
2023-03-14T03:28:28.793Z,89.22
2023-03-14T03:29:30.270Z,89.13
2023-03-14T03:30:31.778Z,89.00
2023-03-14T03:31:33.254Z,89.15
2023-03-14T03:32:34.867Z,89.51
2023-03-14T03:33:37.448Z,89.52
2023-03-14T03:34:38.829Z,88.90
2023-03-14T03:35:49.316Z,89.58
2023-03-14T03:36:50.753Z,89.18
2023-03-14T03:37:52.272Z,89.24
2023-03-14T03:38:53.732Z,89.21
2023-03-14T03:39:55.134Z,89.73
2023-03-14T03:40:56.565Z,89.81
2023-03-14T03:41:58.126Z,89.21
2023-03-14T03:42:59.607Z,88.81
2023-03-14T03:44:01.025Z,89.33
2023-03-14T03:45:04.116Z,88.96
2023-03-14T03:46:06.877Z,89.24
2023-03-14T03:47:08.449Z,89.45
2023-03-14T03:48:10.008Z,88.87
2023-03-14T03:49:12.323Z,88.21
2023-03-14T03:50:13.755Z,88.77
2023-03-14T03:51:16.519Z,89.22
2023-03-14T03:52:18.227Z,88.23
2023-03-14T03:53:32.381Z,88.55
2023-03-14T03:54:34.910Z,88.72
2023-03-14T03:55:36.320Z,88.47
2023-03-14T03:56:37.763Z,88.13
2023-03-14T03:57:39.207Z,88.43
2023-03-14T03:58:40.674Z,87.77
2023-03-14T03:59:42.179Z,87.43
2023-03-14T04:00:43.729Z,87.93
2023-03-14T04:01:46.098Z,87.95
2023-03-14T04:02:47.719Z,87.92
2023-03-14T04:03:49.462Z,87.92
2023-03-14T04:04:51.040Z,88.47
2023-03-14T04:06:03.965Z,87.74
2023-03-14T04:07:05.715Z,88.14
2023-03-14T04:08:07.160Z,88.08
2023-03-14T04:09:12.328Z,88.42
2023-03-14T04:10:13.717Z,88.01
2023-03-14T04:11:16.564Z,87.93
2023-03-14T04:12:18.653Z,88.28
2023-03-14T04:13:20.077Z,88.42
2023-03-14T04:14:21.891Z,88.33
2023-03-14T04:15:23.294Z,87.66
2023-03-14T04:16:26.684Z,88.03
2023-03-14T04:17:28.158Z,88.58
2023-03-14T04:18:31.212Z,87.30
2023-03-14T04:19:32.660Z,87.45
2023-03-14T04:20:35.843Z,87.80
2023-03-14T04:21:37.306Z,87.61
2023-03-14T04:22:40.055Z,87.06
2023-03-14T04:23:41.495Z,87.22
2023-03-14T04:24:42.946Z,86.71
2023-03-14T04:25:44.382Z,87.60
2023-03-14T04:26:45.823Z,88.55
2023-03-14T04:27:49.002Z,88.43
2023-03-14T04:28:50.466Z,87.28
2023-03-14T04:29:51.877Z,86.57
2023-03-14T04:30:53.323Z,86.95
2023-03-14T04:31:54.759Z,86.83
2023-03-14T04:32:56.356Z,86.70
2023-03-14T04:33:57.881Z,87.57
2023-03-14T04:34:59.320Z,86.85
2023-03-14T04:36:00.763Z,87.51
2023-03-14T04:37:02.209Z,87.11
2023-03-14T04:38:03.905Z,87.80
2023-03-14T04:39:05.377Z,87.90
2023-03-14T04:40:07.710Z,87.65
2023-03-14T04:41:09.167Z,86.97
2023-03-14T04:42:10.590Z,86.88
2023-03-14T04:43:12.984Z,87.64
2023-03-14T04:44:14.509Z,88.19
2023-03-14T04:45:15.922Z,88.79
2023-03-14T04:46:17.436Z,88.39
2023-03-14T04:47:18.914Z,88.37
2023-03-14T04:48:20.398Z,87.54
2023-03-14T04:49:22.136Z,87.52
2023-03-14T04:50:23.720Z,87.71
2023-03-14T04:51:28.164Z,88.44
2023-03-14T04:52:29.701Z,87.25
2023-03-14T04:53:32.907Z,87.58
2023-03-14T04:54:34.632Z,88.19
2023-03-14T04:55:36.316Z,87.42
2023-03-14T04:56:38.000Z,87.15
2023-03-14T04:57:39.432Z,87.14
2023-03-14T04:58:40.952Z,87.44
2023-03-14T04:59:42.396Z,86.61
2023-03-14T05:00:43.788Z,87.14
2023-03-14T05:01:45.343Z,87.51
2023-03-14T05:02:46.972Z,87.43
2023-03-14T05:03:48.370Z,86.64
2023-03-14T05:04:49.790Z,87.07
2023-03-14T05:05:51.207Z,86.15
2023-03-14T05:06:52.843Z,85.78
2023-03-14T05:07:54.293Z,86.41
2023-03-14T05:08:55.688Z,86.47
2023-03-14T05:09:57.155Z,85.48
2023-03-14T05:10:58.920Z,85.88
2023-03-14T05:12:00.329Z,86.79
2023-03-14T05:13:01.796Z,86.12
2023-03-14T05:14:03.223Z,85.97
2023-03-14T05:15:05.481Z,85.44
2023-03-14T05:16:09.862Z,85.84
2023-03-14T05:17:12.310Z,85.47
2023-03-14T05:18:13.754Z,84.99
2023-03-14T05:19:15.166Z,84.54
2023-03-14T05:20:17.433Z,86.46
2023-03-14T05:21:18.840Z,85.73
2023-03-14T05:22:20.243Z,86.01
2023-03-14T05:23:21.678Z,85.73
2023-03-14T05:24:23.301Z,84.56
2023-03-14T05:25:24.806Z,85.51
2023-03-14T05:26:26.260Z,85.68
2023-03-14T05:27:27.654Z,84.42
2023-03-14T05:28:29.313Z,84.93
2023-03-14T05:29:30.806Z,85.05
2023-03-14T05:30:33.357Z,85.70
2023-03-14T05:31:34.940Z,84.49
2023-03-14T05:32:36.439Z,85.23
2023-03-14T05:33:38.094Z,84.25
2023-03-14T05:34:39.536Z,84.44
2023-03-14T05:35:40.994Z,82.75
2023-03-14T05:36:42.523Z,83.89
2023-03-14T05:37:44.046Z,83.59
2023-03-14T05:38:45.447Z,83.09
2023-03-14T05:39:46.858Z,84.86
2023-03-14T05:40:48.329Z,84.51
2023-03-14T05:41:49.814Z,84.17
2023-03-14T05:42:51.242Z,83.46
2023-03-14T05:43:52.658Z,83.93
2023-03-14T05:44:54.090Z,83.10
2023-03-14T05:45:55.636Z,82.33
2023-03-14T05:46:57.113Z,81.22
2023-03-14T05:47:58.563Z,81.82
2023-03-14T05:49:00.592Z,81.87
2023-03-14T05:50:02.028Z,81.54
2023-03-14T05:51:03.580Z,80.58
2023-03-14T05:52:05.518Z,82.23
2023-03-14T05:53:07.099Z,81.07
2023-03-14T05:54:11.678Z,80.77
2023-03-14T05:55:13.093Z,80.06
2023-03-14T05:56:14.573Z,79.53
2023-03-14T05:57:15.946Z,80.53
2023-03-14T05:58:17.357Z,80.32
2023-03-14T05:59:18.791Z,78.57
2023-03-14T06:00:20.684Z,80.12
2023-03-14T06:01:22.166Z,81.32
2023-03-14T06:02:23.583Z,80.67
2023-03-14T06:03:25.150Z,79.06
2023-03-14T06:04:26.639Z,79.52
2023-03-14T06:05:28.089Z,78.28
2023-03-14T06:06:29.560Z,79.26
2023-03-14T06:07:31.010Z,78.27
2023-03-14T06:08:32.470Z,78.42
2023-03-14T06:09:33.882Z,78.94
2023-03-14T06:10:37.128Z,78.56
2023-03-14T06:11:38.581Z,78.11
2023-03-14T06:12:40.196Z,78.02
2023-03-14T06:13:41.624Z,79.67
2023-03-14T06:14:43.065Z,79.78
2023-03-14T06:15:44.993Z,79.03
2023-03-14T06:16:46.494Z,78.06
2023-03-14T06:17:47.932Z,79.09
2023-03-14T06:18:50.028Z,79.63
2023-03-14T06:19:51.479Z,80.04
2023-03-14T06:20:56.788Z,78.82
2023-03-14T06:21:58.235Z,77.63
2023-03-14T06:22:59.712Z,77.68
2023-03-14T06:24:01.141Z,78.54
2023-03-14T06:25:02.616Z,77.51
2023-03-14T06:26:04.216Z,78.32
2023-03-14T06:27:05.747Z,77.27
2023-03-14T06:28:07.187Z,76.73
2023-03-14T06:29:08.646Z,77.04
2023-03-14T06:30:10.743Z,76.53
2023-03-14T06:31:12.206Z,76.41
2023-03-14T06:32:13.659Z,76.07
2023-03-14T06:33:15.123Z,77.37
2023-03-14T06:34:16.649Z,76.24
2023-03-14T06:35:18.344Z,76.30
2023-03-14T06:36:19.757Z,75.21
2023-03-14T06:37:21.281Z,76.66
2023-03-14T06:38:22.727Z,75.41
2023-03-14T06:39:24.188Z,75.36
2023-03-14T06:40:25.949Z,76.64
2023-03-14T06:41:27.748Z,76.71
2023-03-14T06:42:29.231Z,75.78
2023-03-14T06:43:30.649Z,75.49
2023-03-14T06:44:32.185Z,76.04
2023-03-14T06:45:33.587Z,75.53
2023-03-14T06:46:35.116Z,75.18
2023-03-14T06:47:36.780Z,75.22
2023-03-14T06:48:38.236Z,75.60
2023-03-14T06:49:39.718Z,75.59
2023-03-14T06:50:41.112Z,75.72
2023-03-14T06:51:42.568Z,74.58
2023-03-14T06:52:48.734Z,74.46
2023-03-14T06:53:50.554Z,74.50
2023-03-14T06:54:51.988Z,74.26
2023-03-14T06:55:53.501Z,74.72
2023-03-14T06:56:54.923Z,74.66
2023-03-14T06:57:56.344Z,74.45
2023-03-14T06:58:57.845Z,74.35
2023-03-14T06:59:59.264Z,74.34
2023-03-14T07:01:00.805Z,73.81
2023-03-14T07:02:02.242Z,73.26
2023-03-14T07:03:03.799Z,73.31
2023-03-14T07:04:05.480Z,74.39
2023-03-14T07:05:07.612Z,73.78
2023-03-14T07:06:09.193Z,74.41
2023-03-14T07:07:10.714Z,75.11
2023-03-14T07:08:12.189Z,74.66
2023-03-14T07:09:14.442Z,73.56
2023-03-14T07:10:16.069Z,73.67
2023-03-14T07:11:17.820Z,72.95
2023-03-14T07:12:19.371Z,73.46
2023-03-14T07:13:20.796Z,74.08
2023-03-14T07:14:22.203Z,73.35
2023-03-14T07:15:23.681Z,74.86
2023-03-14T07:16:25.189Z,75.40
2023-03-14T07:17:26.606Z,75.18
2023-03-14T07:18:28.094Z,74.72
2023-03-14T07:19:29.571Z,75.04
2023-03-14T07:20:33.236Z,74.48
2023-03-14T07:21:35.770Z,75.80
2023-03-14T07:22:37.526Z,76.08
2023-03-14T07:23:39.457Z,75.02
2023-03-14T07:24:40.794Z,76.91
2023-03-14T07:25:42.447Z,74.63
2023-03-14T07:26:43.907Z,74.83
2023-03-14T07:27:47.643Z,76.56
2023-03-14T07:28:49.052Z,75.73
2023-03-14T07:29:50.458Z,74.33
2023-03-14T07:30:51.976Z,75.51
2023-03-14T07:31:53.421Z,76.11
2023-03-14T07:32:54.857Z,75.56
2023-03-14T07:33:56.434Z,75.88
2023-03-14T07:34:57.865Z,74.44
2023-03-14T07:35:59.629Z,74.93
2023-03-14T07:37:01.066Z,75.86
2023-03-14T07:38:02.566Z,76.31
2023-03-14T07:39:05.180Z,76.52
2023-03-14T07:40:08.246Z,76.99
2023-03-14T07:41:10.426Z,77.11
2023-03-14T07:42:12.081Z,76.63
2023-03-14T07:43:13.523Z,76.83
2023-03-14T07:44:14.944Z,76.89
2023-03-14T07:45:16.610Z,78.14
2023-03-14T07:46:18.584Z,78.17
2023-03-14T07:47:20.677Z,77.04
2023-03-14T07:48:22.972Z,76.84
2023-03-14T07:49:24.748Z,78.08
2023-03-14T07:50:27.446Z,77.14
2023-03-14T07:51:28.919Z,76.33
2023-03-14T07:52:30.413Z,77.15
2023-03-14T07:53:31.846Z,76.64
2023-03-14T07:54:33.385Z,75.69
2023-03-14T07:55:34.975Z,76.52
2023-03-14T07:56:36.565Z,76.71
2023-03-14T07:57:37.981Z,75.89
2023-03-14T07:58:39.414Z,77.54
2023-03-14T07:59:40.847Z,74.92
2023-03-14T08:00:42.391Z,74.92
2023-03-14T08:01:43.880Z,72.90
2023-03-14T08:02:45.289Z,73.22
2023-03-14T08:03:46.771Z,72.29
2023-03-14T08:04:48.237Z,71.94
2023-03-14T08:05:51.271Z,71.09
2023-03-14T08:06:53.699Z,70.82
2023-03-14T08:07:55.280Z,71.02
2023-03-14T08:08:56.718Z,72.76
2023-03-14T08:09:58.166Z,73.88
2023-03-14T08:11:09.498Z,74.25
2023-03-14T08:12:10.999Z,71.20
2023-03-14T08:13:12.786Z,71.01
2023-03-14T08:14:14.269Z,70.74
2023-03-14T08:15:15.701Z,70.91
2023-03-14T08:16:20.988Z,71.33
2023-03-14T08:17:22.478Z,71.24
2023-03-14T08:18:23.948Z,70.63
2023-03-14T08:19:25.616Z,70.88
2023-03-14T08:20:29.304Z,71.32
2023-03-14T08:21:31.446Z,71.21
2023-03-14T08:22:32.973Z,69.57
2023-03-14T08:23:34.410Z,69.25
2023-03-14T08:24:35.930Z,69.72
2023-03-14T08:25:39.130Z,70.61
2023-03-14T08:26:40.698Z,69.74
2023-03-14T08:27:42.911Z,70.24
2023-03-14T08:28:44.344Z,69.83
2023-03-14T08:29:45.821Z,71.23
2023-03-14T08:30:47.943Z,71.46
2023-03-14T08:31:50.067Z,70.94
2023-03-14T08:32:51.726Z,71.45
2023-03-14T08:33:54.162Z,71.49
2023-03-14T08:34:55.610Z,70.40
2023-03-14T08:35:59.439Z,70.05
2023-03-14T08:37:01.577Z,69.49
2023-03-14T08:38:04.173Z,70.02
2023-03-14T08:39:08.155Z,69.57
2023-03-14T08:40:10.925Z,70.46
2023-03-14T08:41:12.414Z,71.47
2023-03-14T08:42:14.092Z,71.31
2023-03-14T08:43:15.579Z,69.92
2023-03-14T08:44:20.120Z,70.98
2023-03-14T08:45:22.522Z,70.21
2023-03-14T08:46:24.002Z,69.33
2023-03-14T08:47:25.446Z,70.05
2023-03-14T08:48:27.863Z,71.94
2023-03-14T08:49:29.317Z,69.84
2023-03-14T08:50:30.808Z,69.74
2023-03-14T08:51:32.397Z,69.86
2023-03-14T08:52:34.050Z,69.65
2023-03-14T08:53:35.642Z,68.81
2023-03-14T08:54:37.049Z,69.42
2023-03-14T08:55:38.470Z,72.65
2023-03-14T08:56:39.987Z,71.13
2023-03-14T08:57:41.484Z,71.57
2023-03-14T08:58:43.129Z,72.20
2023-03-14T08:59:44.594Z,69.47
2023-03-14T09:00:46.126Z,70.46
2023-03-14T09:01:47.546Z,71.13
2023-03-14T09:02:48.974Z,70.96
2023-03-14T09:03:50.968Z,69.99
2023-03-14T09:04:53.265Z,70.01
2023-03-14T09:05:54.720Z,70.08
2023-03-14T09:06:56.191Z,70.58
2023-03-14T09:07:57.588Z,69.82
2023-03-14T09:08:59.085Z,69.98
2023-03-14T09:10:00.569Z,69.56
2023-03-14T09:11:02.734Z,67.53
2023-03-14T09:12:04.683Z,68.93
2023-03-14T09:13:05.992Z,69.27
2023-03-14T09:14:07.448Z,68.52
2023-03-14T09:15:09.685Z,67.63
2023-03-14T09:16:11.239Z,66.80
2023-03-14T09:17:12.691Z,67.04
2023-03-14T09:18:14.116Z,66.36
2023-03-14T09:19:15.573Z,66.96
2023-03-14T09:20:17.369Z,67.21
2023-03-14T09:21:18.790Z,66.96
2023-03-14T09:22:21.404Z,67.57
2023-03-14T09:23:22.982Z,66.05
2023-03-14T09:24:24.517Z,64.58
2023-03-14T09:25:25.987Z,64.41
2023-03-14T09:26:27.386Z,64.13
2023-03-14T09:27:28.778Z,64.54
2023-03-14T09:28:30.203Z,63.35
2023-03-14T09:29:31.677Z,64.84
2023-03-14T09:30:33.667Z,64.93
2023-03-14T09:31:35.953Z,63.43
2023-03-14T09:32:37.598Z,62.88
2023-03-14T09:33:39.539Z,62.00
2023-03-14T09:34:40.875Z,63.60
2023-03-14T09:35:42.404Z,63.78
2023-03-14T09:36:45.241Z,61.92
2023-03-14T09:37:46.818Z,62.81
2023-03-14T09:38:48.201Z,62.92
2023-03-14T09:39:49.698Z,61.22
2023-03-14T09:40:51.409Z,63.38
2023-03-14T09:41:56.249Z,61.67
2023-03-14T09:42:59.716Z,61.71
2023-03-14T09:44:09.529Z,61.76
2023-03-14T09:45:26.261Z,60.80
2023-03-14T09:46:29.550Z,60.10
2023-03-14T09:47:31.632Z,60.74
2023-03-14T09:48:35.741Z,62.61
2023-03-14T09:49:40.528Z,59.51
2023-03-14T09:50:49.971Z,60.44
2023-03-14T09:51:55.234Z,60.32
2023-03-14T09:53:00.239Z,59.75
2023-03-14T09:54:02.405Z,60.90
2023-03-14T09:55:07.424Z,59.86
2023-03-14T09:56:16.651Z,60.09
2023-03-14T09:57:21.325Z,58.70
2023-03-14T09:58:24.748Z,58.38
2023-03-14T09:59:28.152Z,60.44
2023-03-14T10:00:31.660Z,61.50
2023-03-14T10:01:34.436Z,60.68
2023-03-14T10:02:36.713Z,61.48
2023-03-14T10:03:38.181Z,61.31
2023-03-14T10:04:42.477Z,63.03
2023-03-14T10:05:44.096Z,60.79
2023-03-14T10:06:45.831Z,60.41
2023-03-14T10:07:47.676Z,60.77
2023-03-14T10:08:49.139Z,60.72
2023-03-14T10:09:52.055Z,61.69
2023-03-14T10:10:54.721Z,63.05
2023-03-14T10:11:58.138Z,62.02
2023-03-14T10:13:26.911Z,62.32
2023-03-14T10:14:37.358Z,62.09
2023-03-14T10:15:39.028Z,63.93
2023-03-14T10:16:45.915Z,62.68
2023-03-14T10:17:51.580Z,60.84
2023-03-14T10:18:53.003Z,62.51
2023-03-14T10:20:00.104Z,62.72
2023-03-14T10:21:29.375Z,64.50
2023-03-14T10:22:32.349Z,61.24
2023-03-14T10:23:34.987Z,63.33
2023-03-14T10:24:36.731Z,63.95
2023-03-14T10:25:42.728Z,61.08
2023-03-14T10:26:44.242Z,62.92
2023-03-14T10:27:45.722Z,64.81
2023-03-14T10:28:52.214Z,62.39
2023-03-14T10:30:07.802Z,61.52
2023-03-14T10:31:09.678Z,62.51
2023-03-14T10:32:19.380Z,62.31
2023-03-14T10:33:25.726Z,63.35
2023-03-14T10:34:36.921Z,62.49
2023-03-14T10:35:38.474Z,61.14
2023-03-14T10:36:40.044Z,62.53
2023-03-14T10:37:55.277Z,64.27
2023-03-14T10:39:17.006Z,62.66
2023-03-14T10:40:21.426Z,61.89
2023-03-14T10:41:31.350Z,64.05
2023-03-14T10:42:35.867Z,63.28
2023-03-14T10:43:39.755Z,62.67
2023-03-14T10:44:42.342Z,61.10
2023-03-14T10:45:46.612Z,63.55
2023-03-14T10:46:57.405Z,61.62
2023-03-14T10:48:07.099Z,62.16
2023-03-14T10:49:08.930Z,62.81
2023-03-14T10:50:25.584Z,64.06
2023-03-14T10:51:29.787Z,61.76
2023-03-14T10:53:01.293Z,62.40
2023-03-14T10:54:02.994Z,63.72
2023-03-14T10:55:11.239Z,62.69
2023-03-14T10:56:19.407Z,63.96
2023-03-14T10:57:21.703Z,63.97
2023-03-14T10:58:33.954Z,62.36
2023-03-14T10:59:42.362Z,63.26
2023-03-14T11:00:44.198Z,63.69
2023-03-14T11:01:59.033Z,64.72
2023-03-14T11:03:13.673Z,61.77
2023-03-14T11:04:52.417Z,61.87
2023-03-14T11:06:00.437Z,62.14
2023-03-14T11:07:15.962Z,62.91
2023-03-14T11:08:36.022Z,63.68
2023-03-14T11:09:37.392Z,62.26
2023-03-14T11:10:43.717Z,61.88
2023-03-14T11:11:48.446Z,61.20
2023-03-14T11:13:03.298Z,62.26
2023-03-14T11:14:26.365Z,62.50
2023-03-14T11:15:52.379Z,63.84
2023-03-14T11:17:12.492Z,64.57
2023-03-14T11:18:29.193Z,62.58
2023-03-14T11:19:45.350Z,64.27
2023-03-14T11:21:24.501Z,64.98
2023-03-14T11:22:51.483Z,63.12
2023-03-14T11:23:58.918Z,63.18
2023-03-14T11:25:07.135Z,64.85
2023-03-14T11:26:24.207Z,62.46
2023-03-14T11:27:37.973Z,63.55
2023-03-14T11:28:43.847Z,63.58
2023-03-14T11:29:54.800Z,64.01
2023-03-14T11:31:03.825Z,64.19
2023-03-14T11:32:13.458Z,63.06
2023-03-14T11:33:30.218Z,63.98
2023-03-14T11:34:44.590Z,64.38
2023-03-14T11:35:58.017Z,63.64
2023-03-14T11:37:08.107Z,65.21
2023-03-14T11:38:21.330Z,64.69
2023-03-14T11:39:25.986Z,64.65
2023-03-14T11:40:29.052Z,63.14
2023-03-14T11:41:35.935Z,63.11
2023-03-14T11:42:39.700Z,64.14
2023-03-14T11:43:44.107Z,64.52
2023-03-14T11:44:49.508Z,65.33
2023-03-14T11:45:53.681Z,66.83
2023-03-14T11:47:03.578Z,67.82
2023-03-14T11:48:29.383Z,69.43
2023-03-14T11:49:57.690Z,70.38
2023-03-14T11:51:03.266Z,70.68
2023-03-14T11:52:12.078Z,72.24
2023-03-14T11:53:28.623Z,72.33
2023-03-14T11:54:43.902Z,71.56
2023-03-14T11:55:46.751Z,71.28
2023-03-14T11:56:56.518Z,76.08
2023-03-14T11:58:04.483Z,72.22
2023-03-14T11:59:10.443Z,72.87
2023-03-14T12:00:26.040Z,75.92
2023-03-14T12:01:39.000Z,76.19
2023-03-14T12:02:58.853Z,78.18
2023-03-14T12:04:13.099Z,76.42
2023-03-14T12:05:29.272Z,77.38
2023-03-14T12:06:45.174Z,81.84
2023-03-14T12:07:52.704Z,81.00
2023-03-14T12:08:58.730Z,82.12
2023-03-14T12:10:00.195Z,78.26
2023-03-14T12:11:13.457Z,80.50
2023-03-14T12:12:20.982Z,78.38
2023-03-14T12:13:22.820Z,76.41
2023-03-14T12:14:30.667Z,76.57
2023-03-14T12:15:32.210Z,77.67
2023-03-14T12:16:41.233Z,76.05
2023-03-14T12:17:47.349Z,73.82
2023-03-14T12:18:48.860Z,78.32
2023-03-14T12:20:15.292Z,75.80
2023-03-14T12:21:17.200Z,75.29
2023-03-14T12:22:27.022Z,73.44
2023-03-14T12:23:35.294Z,75.69
2023-03-14T12:24:38.526Z,78.63
2023-03-14T12:25:40.066Z,78.02
2023-03-14T12:26:54.338Z,74.91
2023-03-14T12:27:55.723Z,74.02
2023-03-14T12:29:00.285Z,72.88
2023-03-14T12:30:04.023Z,76.21
2023-03-14T12:31:30.994Z,74.88
2023-03-14T12:32:33.204Z,74.15
2023-03-14T12:33:35.237Z,72.03
2023-03-14T12:34:43.883Z,73.57
2023-03-14T12:35:46.702Z,71.41
2023-03-14T12:36:51.221Z,73.78
2023-03-14T12:37:56.343Z,73.59
2023-03-14T12:39:39.104Z,72.44
2023-03-14T12:40:52.801Z,70.94
2023-03-14T12:42:29.648Z,72.55
2023-03-14T12:43:38.328Z,73.47
2023-03-14T12:44:45.479Z,72.15
2023-03-14T12:46:18.817Z,71.49
2023-03-14T12:47:20.384Z,67.10
2023-03-14T12:48:27.086Z,70.39
2023-03-14T12:49:33.683Z,67.49
2023-03-14T12:50:41.336Z,69.77
2023-03-14T12:51:46.697Z,68.48
2023-03-14T12:53:06.550Z,65.52
2023-03-14T12:54:22.843Z,69.06
2023-03-14T12:55:35.161Z,66.06
2023-03-14T12:57:13.300Z,68.52
2023-03-14T12:58:39.825Z,67.38
2023-03-14T12:59:51.416Z,67.57
2023-03-14T13:01:00.169Z,66.39
2023-03-14T13:02:07.751Z,71.84
2023-03-14T13:03:40.323Z,67.81
2023-03-14T13:04:50.494Z,68.42
2023-03-14T13:05:58.886Z,70.55
2023-03-14T13:07:02.067Z,68.93
2023-03-14T13:08:06.229Z,70.85
2023-03-14T13:09:26.452Z,70.17
2023-03-14T13:10:40.280Z,69.82
2023-03-14T13:11:42.109Z,69.56
2023-03-14T13:12:57.967Z,67.58
2023-03-14T13:14:00.270Z,67.52
2023-03-14T13:15:03.626Z,66.84
2023-03-14T13:16:05.509Z,69.61
2023-03-14T13:17:33.652Z,69.07
2023-03-14T13:18:46.943Z,67.87
2023-03-14T13:19:54.841Z,68.14
2023-03-14T13:21:31.442Z,64.61
2023-03-14T13:22:37.979Z,64.43
2023-03-14T13:23:40.191Z,66.47
2023-03-14T13:24:41.850Z,63.82
2023-03-14T13:25:43.481Z,64.28
2023-03-14T13:26:47.276Z,64.03
2023-03-14T13:27:49.483Z,64.36
2023-03-14T13:28:50.971Z,64.35
2023-03-14T13:29:52.623Z,64.53
2023-03-14T13:31:03.217Z,64.72
2023-03-14T13:32:20.127Z,62.88
2023-03-14T13:33:24.102Z,63.21
2023-03-14T13:34:33.461Z,64.15
2023-03-14T13:36:03.574Z,64.96
2023-03-14T13:37:05.324Z,64.07
2023-03-14T13:38:17.897Z,64.99
2023-03-14T13:39:25.977Z,67.10
2023-03-14T13:40:35.223Z,66.84
2023-03-14T13:41:36.910Z,68.21
2023-03-14T13:42:38.324Z,68.64
2023-03-14T13:43:45.266Z,68.77
2023-03-14T13:44:47.409Z,69.40
2023-03-14T13:45:55.104Z,69.44
2023-03-14T13:47:02.170Z,70.36
2023-03-14T13:48:04.750Z,70.75
2023-03-14T13:49:11.040Z,69.84